Time;durP1;ratioP1;P1;durP2;ratioP2;P2;SDS_P1;SDS_P2;PMS_P1;PMS_P2;Temp;Humidity;BMP_temperature;BMP_pressure;BME280_temperature;BME280_humidity;BME280_pressure;Samples;Min_cycle;Max_cycle;Signal;HPM_P1;HPM_P2
2023/12/16 00:01:40;;;;;;;;;;;;;;;5.81;97.03;103044.31;4155445;28;20036;-69
2023/12/16 00:03:42;;;;;;;;;;;;;;;5.81;96.57;103044.31;4156075;28;20375;-69
2023/12/16 00:05:43;;;;;;;;;;;;;;;5.81;96.48;103042.50;4155404;28;20007;-69
2023/12/16 00:07:45;;;;;;;;;;;;;;;5.81;96.96;103047.84;4155063;28;19933;-69
2023/12/16 00:09:48;;;;;;;;;;;;;;;5.82;96.83;103046.06;4153440;28;20015;-70
2023/12/16 00:11:50;;;;;;;;;;;;;;;5.83;96.67;103042.41;4154705;28;20028;-69
2023/12/16 00:13:51;;;;;;;;;;;;;;;5.83;96.57;103040.59;4155777;28;20011;-69
2023/12/16 00:15:53;;;;;;;;;;;;;;;5.84;96.48;103038.78;4155163;28;19972;-70
2023/12/16 00:17:55;;;;;;;;;;;;;;;5.84;96.70;103028.91;4155388;28;20024;-70
2023/12/16 00:19:56;;;;;;;;;;;;;;;5.84;96.38;103046.81;4155638;28;19935;-69
2023/12/16 00:21:58;;;;;;;;;;;;;;;5.85;96.52;103051.25;4154784;28;20020;-70
2023/12/16 00:24:01;;;;;;;;;;;;;;;5.86;96.34;103052.94;4155221;28;20015;-70
2023/12/16 00:26:04;;;;;;;;;;;;;;;5.86;96.71;103052.94;4153837;28;20024;-68
2023/12/16 00:28:06;;;;;;;;;;;;;;;5.87;96.43;103049.31;4155480;28;20015;-70
2023/12/16 00:30:09;;;;;;;;;;;;;;;5.86;96.75;103043.13;4155301;28;20020;-70
2023/12/16 00:32:11;;;;;;;;;;;;;;;5.87;96.43;103043.97;4156911;28;20019;-69
2023/12/16 00:34:12;;;;;;;;;;;;;;;5.87;96.77;103042.13;4155012;28;20029;-69
2023/12/16 00:36:15;;;;;;;;;;;;;;;5.87;96.87;103047.50;4155452;28;19971;-69
2023/12/16 00:38:16;;;;;;;;;;;;;;;5.87;96.83;103044.81;4155390;28;20016;-70
2023/12/16 00:40:19;;;;;;;;;;;;;;;5.88;96.52;103034.97;4154785;28;20378;-69
2023/12/16 00:42:22;;;;;;;;;;;;;;;5.88;96.52;103024.25;4154398;28;20016;-69
2023/12/16 00:44:23;;;;;;;;;;;;;;;5.89;96.47;103034.00;4152146;28;20020;-69
2023/12/16 00:46:25;;;;;;;;;;;;;;;5.89;96.95;103025.94;4155527;28;19929;-69
2023/12/16 00:48:27;;;;;;;;;;;;;;;5.90;96.52;103027.69;4152493;28;20008;-69
2023/12/16 00:50:29;;;;;;;;;;;;;;;5.90;96.54;103033.06;4154719;28;20012;-70
2023/12/16 00:52:31;;;;;;;;;;;;;;;5.90;96.66;103027.69;4155278;28;20023;-69
2023/12/16 00:54:33;;;;;;;;;;;;;;;5.91;96.54;103034.78;4150573;28;20802;-68
2023/12/16 00:56:35;;;;;;;;;;;;;;;5.91;96.75;103029.44;4151832;28;19926;-69
2023/12/16 00:58:39;;;;;;;;;;;;;;;5.91;96.63;103032.97;4155050;28;20475;-69
2023/12/16 01:00:42;;;;;;;;;;;;;;;5.92;96.71;103034.72;4149504;28;20019;-71
2023/12/16 01:02:45;;;;;;;;;;;;;;;5.92;96.61;103040.06;4154403;28;20032;-69
2023/12/16 01:04:49;;;;;;;;;;;;;;;5.92;96.92;103042.75;4154668;28;20439;-71
2023/12/16 01:06:51;;;;;;;;;;;;;;;5.93;97.07;103048.97;4154441;28;20575;-69
2023/12/16 01:08:53;;;;;;;;;;;;;;;5.94;97.32;103051.56;4153627;28;20463;-69
2023/12/16 01:10:55;;;;;;;;;;;;;;;5.93;97.25;103054.34;4154673;28;20028;-70
2023/12/16 01:12:57;;;;;;;;;;;;;;;5.94;96.99;103053.34;4154565;28;20016;-69
2023/12/16 01:14:59;;;;;;;;;;;;;;;5.94;96.89;103056.94;4154579;28;20024;-70
2023/12/16 01:17:01;;;;;;;;;;;;;;;5.94;97.20;103054.25;4149722;28;20593;-70
2023/12/16 01:19:02;;;;;;;;;;;;;;;5.96;97.24;103054.16;4151670;28;20474;-69
2023/12/16 01:21:04;;;;;;;;;;;;;;;5.96;97.27;103062.22;4154727;28;20008;-70
2023/12/16 01:23:06;;;;;;;;;;;;;;;5.97;97.18;103055.91;4154255;28;20019;-70
2023/12/16 01:25:09;;;;;;;;;;;;;;;5.97;97.02;103050.53;4154757;28;20008;-70
2023/12/16 01:27:11;;;;;;;;;;;;;;;5.98;96.97;103051.41;4154463;28;20029;-69
2023/12/16 01:29:13;;;;;;;;;;;;;;;5.98;97.14;103048.72;4156134;28;20027;-69
2023/12/16 01:31:18;;;;;;;;;;;;;;;5.98;96.82;103041.53;4154568;28;20020;-69
2023/12/16 01:33:19;;;;;;;;;;;;;;;5.99;96.87;103048.66;4149122;28;20024;-70
2023/12/16 01:35:21;;;;;;;;;;;;;;;5.99;97.04;103043.28;4153357;28;19925;-72
2023/12/16 01:37:22;;;;;;;;;;;;;;;5.99;96.98;103045.06;4155025;28;20370;-70
2023/12/16 01:39:24;;;;;;;;;;;;;;;6.00;96.80;103054.88;4153531;28;19933;-72
2023/12/16 01:41:26;;;;;;;;;;;;;;;6.00;97.01;103054.88;4153758;28;20027;-71
2023/12/16 01:43:28;;;;;;;;;;;;;;;6.00;97.05;103053.03;4154248;28;20028;-70
2023/12/16 01:45:30;;;;;;;;;;;;;;;6.00;96.58;103058.41;4154226;28;20044;-70
2023/12/16 01:47:33;;;;;;;;;;;;;;;6.01;96.64;103046.72;4154316;28;20454;-70
2023/12/16 01:49:37;;;;;;;;;;;;;;;6.01;96.85;103054.78;4153921;28;20379;-70
2023/12/16 01:51:39;;;;;;;;;;;;;;;6.01;96.58;103057.47;4154075;28;20008;-70
2023/12/16 01:53:41;;;;;;;;;;;;;;;6.01;96.88;103053.91;4154082;28;20458;-70
2023/12/16 01:55:43;;;;;;;;;;;;;;;6.02;96.89;103058.31;4152924;28;20027;-70
2023/12/16 01:57:45;;;;;;;;;;;;;;;6.03;96.60;103063.59;4153443;28;19979;-70
2023/12/16 01:59:54;;;;;;;;;;;;;;;6.02;96.54;103061.88;4136842;28;20032;-70
2023/12/16 02:01:56;;;;;;;;;;;;;;;6.03;96.80;103076.16;4136242;28;19969;-69
2023/12/16 02:03:59;;;;;;;;;;;;;;;6.03;96.54;103077.00;4153186;28;20017;-70
2023/12/16 02:06:00;;;;;;;;;;;;;;;6.04;96.55;103080.56;4154226;28;20035;-70
2023/12/16 02:08:02;;;;;;;;;;;;;;;6.03;96.58;103071.63;4153746;28;20316;-70
2023/12/16 02:10:04;;;;;;;;;;;;;;;6.04;96.72;103073.38;4154472;28;19932;-71
2023/12/16 02:12:06;;;;;;;;;;;;;;;6.04;96.56;103072.53;4154295;28;20025;-70
2023/12/16 02:14:08;;;;;;;;;;;;;;;6.05;96.79;103079.59;4153679;28;20023;-70
2023/12/16 02:16:10;;;;;;;;;;;;;;;6.05;96.69;103066.19;4157168;28;20036;-70
2023/12/16 02:18:12;;;;;;;;;;;;;;;6.05;96.79;103064.38;4151746;28;19976;-70
2023/12/16 02:20:16;;;;;;;;;;;;;;;6.05;96.53;103058.13;4156464;28;20023;-70
2023/12/16 02:22:18;;;;;;;;;;;;;;;6.06;96.57;103060.72;4157305;28;20019;-70
2023/12/16 02:24:21;;;;;;;;;;;;;;;6.05;96.68;103056.34;4157426;28;20455;-70
2023/12/16 02:26:23;;;;;;;;;;;;;;;6.07;96.90;103056.25;4157003;28;20025;-70
2023/12/16 02:28:25;;;;;;;;;;;;;;;6.06;96.75;103050.00;4153709;28;20024;-70
2023/12/16 02:30:26;;;;;;;;;;;;;;;6.07;96.92;103058.94;4157149;28;20375;-69
2023/12/16 02:32:28;;;;;;;;;;;;;;;6.07;96.82;103064.28;4157178;28;20368;-70
2023/12/16 02:34:30;;;;;;;;;;;;;;;6.07;96.67;103053.56;4155925;28;20013;-71
2023/12/16 02:36:32;;;;;;;;;;;;;;;6.07;96.45;103054.41;4157426;28;20439;-70
2023/12/16 02:38:36;;;;;;;;;;;;;;;6.07;96.61;103059.78;4157103;28;19925;-71
2023/12/16 02:40:42;;;;;;;;;;;;;;;6.08;96.57;103061.53;4156513;28;20040;-70
2023/12/16 02:42:44;;;;;;;;;;;;;;;6.08;96.81;103055.25;4157656;28;20059;-69
2023/12/16 02:44:46;;;;;;;;;;;;;;;6.09;96.52;103073.97;4155453;28;20025;-70
2023/12/16 02:46:48;;;;;;;;;;;;;;;6.10;96.74;103072.16;4155901;28;20024;-70
2023/12/16 02:48:50;;;;;;;;;;;;;;;6.10;96.43;103072.16;4156383;28;20011;-70
2023/12/16 02:50:52;;;;;;;;;;;;;;;6.09;96.49;103081.16;4156912;28;20012;-69
2023/12/16 02:52:54;;;;;;;;;;;;;;;6.10;96.50;103073.00;4156874;28;20417;-70
2023/12/16 02:54:56;;;;;;;;;;;;;;;6.10;96.54;103072.16;4153765;28;20012;-71
2023/12/16 02:56:59;;;;;;;;;;;;;;;6.10;96.85;103072.16;4156062;28;20008;-70
2023/12/16 02:59:02;;;;;;;;;;;;;;;6.11;96.59;103069.38;4156848;28;20364;-70
2023/12/16 03:01:04;;;;;;;;;;;;;;;6.11;96.72;103073.88;4157923;28;20017;-71
2023/12/16 03:03:06;;;;;;;;;;;;;;;6.12;96.61;103064.88;4156711;28;20024;-70
2023/12/16 03:05:08;;;;;;;;;;;;;;;6.12;96.58;103070.25;4153224;28;20047;-70
2023/12/16 03:07:10;;;;;;;;;;;;;;;6.11;96.73;103065.81;4157307;28;20009;-70
2023/12/16 03:09:12;;;;;;;;;;;;;;;6.12;96.55;103068.41;4157768;28;20430;-70
2023/12/16 03:11:14;;;;;;;;;;;;;;;6.11;96.73;103066.72;4152940;28;20027;-71
2023/12/16 03:13:17;;;;;;;;;;;;;;;6.13;96.75;103071.97;4156809;28;20020;-70
2023/12/16 03:15:20;;;;;;;;;;;;;;;6.12;96.82;103073.78;4156943;28;20032;-71
2023/12/16 03:17:21;;;;;;;;;;;;;;;6.13;97.01;103080.03;4156281;28;20012;-72
2023/12/16 03:19:23;;;;;;;;;;;;;;;6.15;96.70;103077.25;4156290;28;19995;-70
2023/12/16 03:21:25;;;;;;;;;;;;;;;6.15;96.80;103077.25;4156065;28;20032;-70
2023/12/16 03:23:27;;;;;;;;;;;;;;;6.15;97.02;103083.47;4156372;28;20025;-70
2023/12/16 03:25:29;;;;;;;;;;;;;;;6.15;96.71;103078.13;4155338;28;20455;-70
2023/12/16 03:27:30;;;;;;;;;;;;;;;6.15;96.69;103078.13;4155729;28;20020;-70
2023/12/16 03:29:34;;;;;;;;;;;;;;;6.16;96.67;103081.66;4155917;28;20044;-70
2023/12/16 03:31:35;;;;;;;;;;;;;;;6.16;96.94;103082.53;4155670;28;20062;-71
2023/12/16 03:33:38;;;;;;;;;;;;;;;6.17;96.97;103080.72;4157415;28;20024;-70
2023/12/16 03:35:40;;;;;;;;;;;;;;;6.17;96.99;103083.38;4156638;28;20019;-72
2023/12/16 03:37:42;;;;;;;;;;;;;;;6.18;96.55;103095.88;4156146;28;20020;-71
2023/12/16 03:39:44;;;;;;;;;;;;;;;6.18;96.95;103090.50;4156540;28;20622;-70
2023/12/16 03:41:45;;;;;;;;;;;;;;;6.18;97.21;103104.75;4157037;28;20023;-71
2023/12/16 03:43:46;;;;;;;;;;;;;;;6.19;97.02;103097.56;4156678;28;20016;-70
2023/12/16 03:45:50;;;;;;;;;;;;;;;6.19;96.81;103110.97;4155435;28;20408;-71
2023/12/16 03:47:51;;;;;;;;;;;;;;;6.19;96.65;103106.50;4150798;28;20016;-71
2023/12/16 03:49:53;;;;;;;;;;;;;;;6.21;96.95;103114.47;4155657;28;20012;-71
2023/12/16 03:51:56;;;;;;;;;;;;;;;6.21;97.07;103101.03;4156426;28;19956;-71
2023/12/16 03:53:58;;;;;;;;;;;;;;;6.21;96.98;103095.69;4155709;28;20015;-70
2023/12/16 03:56:00;;;;;;;;;;;;;;;6.21;96.80;103106.41;4150943;28;20410;-70
2023/12/16 03:58:02;;;;;;;;;;;;;;;6.22;97.09;103109.00;4155857;28;20028;-71
2023/12/16 04:00:05;;;;;;;;;;;;;;;6.21;96.77;103101.91;4156123;28;20399;-70
2023/12/16 04:02:15;;;;;;;;;;;;;;;6.21;97.22;103104.59;4155566;28;20012;-71
2023/12/16 04:04:17;;;;;;;;;;;;;;;6.23;96.97;103101.81;4154362;28;20008;-70
2023/12/16 04:06:19;;;;;;;;;;;;;;;6.24;97.20;103092.81;4155869;28;20028;-71
2023/12/16 04:08:21;;;;;;;;;;;;;;;6.25;97.17;103091.84;4155318;28;20017;-70
2023/12/16 04:10:23;;;;;;;;;;;;;;;6.23;97.26;103097.31;4155047;28;20011;-70
2023/12/16 04:12:24;;;;;;;;;;;;;;;6.24;97.26;103091.00;4155585;28;20049;-70
2023/12/16 04:14:26;;;;;;;;;;;;;;;6.25;97.14;103102.56;4155375;28;19926;-70
2023/12/16 04:16:28;;;;;;;;;;;;;;;6.25;97.14;103107.94;4155443;28;20020;-70
2023/12/16 04:18:32;;;;;;;;;;;;;;;6.26;97.41;103098.94;4149631;28;20016;-70
2023/12/16 04:20:34;;;;;;;;;;;;;;;6.26;97.16;103101.63;4155053;28;19933;-70
2023/12/16 04:22:37;;;;;;;;;;;;;;;6.27;97.28;103111.38;4153316;28;20016;-70
2023/12/16 04:24:39;;;;;;;;;;;;;;;6.27;96.94;103100.66;4155736;28;20451;-70
2023/12/16 04:26:40;;;;;;;;;;;;;;;6.28;97.20;103105.06;4155542;28;20011;-70
2023/12/16 04:28:41;;;;;;;;;;;;;;;6.27;97.02;103100.66;4156480;28;20019;-71
2023/12/16 04:30:43;;;;;;;;;;;;;;;6.28;97.29;103097.03;4155529;28;20016;-71
2023/12/16 04:32:45;;;;;;;;;;;;;;;6.28;97.36;103097.03;4154417;28;20049;-71
2023/12/16 04:34:49;;;;;;;;;;;;;;;6.29;97.17;103098.75;4154442;28;20029;-70
2023/12/16 04:36:51;;;;;;;;;;;;;;;6.29;96.85;103091.56;4151338;28;20019;-70
2023/12/16 04:38:53;;;;;;;;;;;;;;;6.29;96.94;103090.72;4153880;28;20012;-70
2023/12/16 04:40:55;;;;;;;;;;;;;;;6.29;97.13;103090.72;4154664;28;19933;-71
2023/12/16 04:42:55;;;;;;;;;;;;;;;6.29;97.22;103096.94;4154933;28;20008;-70
2023/12/16 04:44:57;;;;;;;;;;;;;;;6.30;97.32;103089.75;4155210;28;19936;-70
2023/12/16 04:46:59;;;;;;;;;;;;;;;6.30;97.35;103092.41;4152578;28;20020;-70
2023/12/16 04:49:01;;;;;;;;;;;;;;;6.30;97.22;103089.75;4154993;28;20020;-70
2023/12/16 04:51:05;;;;;;;;;;;;;;;6.31;97.16;103088.78;4155269;28;20004;-70
2023/12/16 04:53:07;;;;;;;;;;;;;;;6.31;97.29;103094.16;4155083;28;20016;-70
2023/12/16 04:55:11;;;;;;;;;;;;;;;6.31;97.30;103091.47;4153623;28;20013;-70
2023/12/16 04:57:13;;;;;;;;;;;;;;;6.30;97.27;103093.31;4154395;28;20025;-70
2023/12/16 04:59:24;;;;;;;;;;;;;;;6.31;97.16;103089.66;4210563;27;19924;-69
2023/12/16 05:01:26;;;;;;;;;;;;;;;6.31;97.25;103088.78;4208001;28;20015;-69
2023/12/16 05:03:28;;;;;;;;;;;;;;;6.31;97.15;103089.66;4208884;28;20023;-69
2023/12/16 05:05:30;;;;;;;;;;;;;;;6.32;97.31;103098.59;4208015;28;20012;-69
2023/12/16 05:07:31;;;;;;;;;;;;;;;6.32;96.91;103095.91;4208023;28;20016;-69
2023/12/16 05:09:33;;;;;;;;;;;;;;;6.34;96.97;103098.50;4208256;28;20011;-69
2023/12/16 05:11:34;;;;;;;;;;;;;;;6.32;97.25;103093.22;4206676;28;20047;-70
2023/12/16 05:13:36;;;;;;;;;;;;;;;6.32;97.04;103099.44;4206432;28;20029;-69
2023/12/16 05:15:39;;;;;;;;;;;;;;;6.34;97.31;103085.94;4207817;28;20015;-70
2023/12/16 05:17:42;;;;;;;;;;;;;;;6.33;97.20;103084.19;4207604;28;20011;-68
2023/12/16 05:19:44;;;;;;;;;;;;;;;6.32;97.29;103088.69;4208494;28;19928;-70
2023/12/16 05:21:46;;;;;;;;;;;;;;;6.32;96.88;103099.44;4207482;28;20023;-69
2023/12/16 05:23:48;;;;;;;;;;;;;;;6.33;97.11;103092.25;4208047;28;20015;-69
2023/12/16 05:25:50;;;;;;;;;;;;;;;6.34;97.23;103087.75;4208905;28;20404;-70
2023/12/16 05:27:52;;;;;;;;;;;;;;;6.34;96.98;103101.19;4209148;28;20027;-69
2023/12/16 05:29:54;;;;;;;;;;;;;;;6.33;96.99;103102.97;4207969;28;20363;-70
2023/12/16 05:31:57;;;;;;;;;;;;;;;6.34;97.38;103111.91;4207581;28;20035;-70
2023/12/16 05:33:59;;;;;;;;;;;;;;;6.32;97.19;103120.91;4208540;28;20023;-69
2023/12/16 05:36:00;;;;;;;;;;;;;;;6.32;97.14;103112.00;4207634;28;20449;-69
2023/12/16 05:38:02;;;;;;;;;;;;;;;6.32;96.91;103120.91;4208000;28;20027;-69
2023/12/16 05:40:03;;;;;;;;;;;;;;;6.33;97.11;103127.13;4207382;28;19946;-69
2023/12/16 05:42:05;;;;;;;;;;;;;;;6.32;97.15;103136.16;4207163;28;20355;-69
2023/12/16 05:44:07;;;;;;;;;;;;;;;6.32;96.84;103146.91;4207000;28;20023;-69
2023/12/16 05:46:09;;;;;;;;;;;;;;;6.32;96.81;103137.00;4207640;28;20023;-69
2023/12/16 05:48:13;;;;;;;;;;;;;;;6.32;96.85;103137.00;4206476;28;20433;-69
2023/12/16 05:50:15;;;;;;;;;;;;;;;6.32;97.00;103134.34;4207320;28;20023;-70
2023/12/16 05:52:17;;;;;;;;;;;;;;;6.32;97.03;103141.53;4207722;28;20414;-69
2023/12/16 05:54:19;;;;;;;;;;;;;;;6.31;96.67;103137.09;4207026;28;20400;-69
2023/12/16 05:56:20;;;;;;;;;;;;;;;6.31;96.99;103134.41;4207722;28;20031;-69
2023/12/16 05:58:22;;;;;;;;;;;;;;;6.31;96.86;103129.06;4207992;28;20019;-69
2023/12/16 06:00:24;;;;;;;;;;;;;;;6.32;96.84;103136.16;4207447;28;19977;-69
2023/12/16 06:02:26;;;;;;;;;;;;;;;6.31;96.92;103127.22;4208112;28;20019;-69
2023/12/16 06:04:30;;;;;;;;;;;;;;;6.32;96.44;103134.34;4207957;28;20028;-69
2023/12/16 06:06:32;;;;;;;;;;;;;;;6.31;96.76;103140.66;4208061;28;20020;-69
2023/12/16 06:08:34;;;;;;;;;;;;;;;6.31;96.84;103139.78;4207061;28;20020;-70
2023/12/16 06:10:36;;;;;;;;;;;;;;;6.32;96.83;103136.16;4196389;28;20023;-69
2023/12/16 06:12:37;;;;;;;;;;;;;;;6.32;96.71;103137.00;4194199;28;20018;-69
2023/12/16 06:14:39;;;;;;;;;;;;;;;6.31;96.42;103143.31;4194985;28;19925;-70
2023/12/16 06:16:41;;;;;;;;;;;;;;;6.31;96.49;103147.84;4196222;28;20023;-69
2023/12/16 06:18:42;;;;;;;;;;;;;;;6.30;96.71;103148.78;4196899;28;20022;-69
2023/12/16 06:20:45;;;;;;;;;;;;;;;6.31;96.51;103153.22;4195358;28;20032;-68
2023/12/16 06:22:47;;;;;;;;;;;;;;;6.31;96.67;103145.16;4195731;28;20019;-69
2023/12/16 06:24:50;;;;;;;;;;;;;;;6.31;96.29;103147.84;4196651;28;20011;-69
2023/12/16 06:26:53;;;;;;;;;;;;;;;6.31;96.29;103154.06;4196863;28;20372;-69
2023/12/16 06:28:55;;;;;;;;;;;;;;;6.31;96.38;103153.22;4194896;28;20056;-69
2023/12/16 06:30:57;;;;;;;;;;;;;;;6.32;96.57;103144.22;4195977;28;20027;-69
2023/12/16 06:32:59;;;;;;;;;;;;;;;6.32;96.56;103152.28;4196134;28;20007;-69
2023/12/16 06:35:01;;;;;;;;;;;;;;;6.32;96.48;103153.13;4195828;28;20023;-69
2023/12/16 06:37:04;;;;;;;;;;;;;;;6.32;96.36;103153.13;4195937;28;20473;-69
2023/12/16 06:39:05;;;;;;;;;;;;;;;6.32;96.38;103141.53;4195036;28;20015;-69
2023/12/16 06:41:08;;;;;;;;;;;;;;;6.32;96.27;103128.97;4195836;28;20027;-72
2023/12/16 06:43:09;;;;;;;;;;;;;;;6.34;96.45;103114.59;4193358;28;20506;-69
2023/12/16 06:45:10;;;;;;;;;;;;;;;6.32;96.70;103101.28;4194526;28;20040;-69
2023/12/16 06:47:12;;;;;;;;;;;;;;;6.33;96.71;103111.03;4195363;28;20390;-69
2023/12/16 06:49:14;;;;;;;;;;;;;;;6.33;96.34;103116.41;4196861;28;20015;-70
2023/12/16 06:51:16;;;;;;;;;;;;;;;6.33;96.31;103124.44;4194077;28;19924;-70
2023/12/16 06:53:20;;;;;;;;;;;;;;;6.32;96.39;103130.78;4196588;28;20367;-69
2023/12/16 06:55:22;;;;;;;;;;;;;;;6.33;96.58;103148.59;4196582;28;20555;-69
2023/12/16 06:57:24;;;;;;;;;;;;;;;6.33;96.56;103148.59;4194912;28;20076;-69
2023/12/16 06:59:26;;;;;;;;;;;;;;;6.34;96.29;103152.19;4196384;28;20018;-69
2023/12/16 07:01:28;;;;;;;;;;;;;;;6.34;96.29;103161.09;4195922;28;20457;-69
2023/12/16 07:03:30;;;;;;;;;;;;;;;6.32;96.28;103150.44;4196013;28;20035;-68
2023/12/16 07:05:33;;;;;;;;;;;;;;;6.34;96.33;103154.84;4196607;28;20394;-69
2023/12/16 07:07:35;;;;;;;;;;;;;;;6.34;96.30;103160.22;4195267;28;20355;-72
2023/12/16 07:09:39;;;;;;;;;;;;;;;6.34;96.55;103160.22;4195752;28;20086;-69
2023/12/16 07:11:41;;;;;;;;;;;;;;;6.34;96.35;103146.81;4193728;28;20003;-71
2023/12/16 07:13:43;;;;;;;;;;;;;;;6.33;96.38;103151.28;4193644;28;20019;-71
2023/12/16 07:15:45;;;;;;;;;;;;;;;6.35;96.35;103144.03;4195176;28;20047;-72
2023/12/16 07:17:47;;;;;;;;;;;;;;;6.35;96.33;103149.41;4195754;28;20015;-69
2023/12/16 07:19:49;;;;;;;;;;;;;;;6.34;96.49;103153.03;4194798;28;20028;-69
2023/12/16 07:21:51;;;;;;;;;;;;;;;6.36;96.34;103152.94;4192177;28;19933;-70
2023/12/16 07:23:53;;;;;;;;;;;;;;;6.36;96.56;103161.00;4193261;28;20012;-69
2023/12/16 07:25:57;;;;;;;;;;;;;;;6.35;96.59;103156.56;4196479;28;20461;-69
2023/12/16 07:27:59;;;;;;;;;;;;;;;6.35;96.11;103154.78;4194670;28;20003;-69
2023/12/16 07:30:02;;;;;;;;;;;;;;;6.35;96.52;103159.25;4194328;28;19925;-68
2023/12/16 07:32:04;;;;;;;;;;;;;;;6.34;96.15;103160.22;4193849;28;20024;-69
2023/12/16 07:34:06;;;;;;;;;;;;;;;6.35;96.46;103160.13;4194759;28;20378;-68
2023/12/16 07:36:09;;;;;;;;;;;;;;;6.35;96.22;103151.19;4194186;28;20020;-69
2023/12/16 07:38:11;;;;;;;;;;;;;;;6.35;96.41;103151.19;4195675;28;20020;-67
2023/12/16 07:40:12;;;;;;;;;;;;;;;6.34;96.06;103155.72;4194562;28;20023;-69
2023/12/16 07:42:15;;;;;;;;;;;;;;;6.35;96.15;103156.56;4192934;28;19924;-69
2023/12/16 07:44:17;;;;;;;;;;;;;;;6.36;96.43;103147.56;4192315;28;20016;-69
2023/12/16 07:46:19;;;;;;;;;;;;;;;6.37;96.13;103157.38;4192434;28;20027;-69
2023/12/16 07:48:21;;;;;;;;;;;;;;;6.37;96.10;103163.59;4190901;28;20928;-69
2023/12/16 07:50:23;;;;;;;;;;;;;;;6.37;96.17;103158.22;4195120;28;20031;-69
2023/12/16 07:52:25;;;;;;;;;;;;;;;6.36;95.88;103169.91;4192637;28;20008;-69
2023/12/16 07:54:28;;;;;;;;;;;;;;;6.37;96.02;103171.66;4194262;28;20019;-69
2023/12/16 07:56:30;;;;;;;;;;;;;;;6.37;96.14;103176.16;4193672;28;20447;-69
2023/12/16 07:58:34;;;;;;;;;;;;;;;6.36;96.30;103186.00;4192052;28;20023;-68
2023/12/16 08:00:36;;;;;;;;;;;;;;;6.37;96.25;103182.38;4193288;28;20019;-69
2023/12/16 08:02:38;;;;;;;;;;;;;;;6.38;95.88;103188.59;4185514;28;20016;-68
2023/12/16 08:04:40;;;;;;;;;;;;;;;6.37;96.20;103182.38;4189989;28;19990;-71
2023/12/16 08:06:42;;;;;;;;;;;;;;;6.37;95.83;103179.69;4190239;28;20031;-69
2023/12/16 08:08:47;;;;;;;;;;;;;;;6.38;96.18;103175.19;4192692;28;20032;-69
2023/12/16 08:10:53;;;;;;;;;;;;;;;6.37;95.87;103177.00;4191104;28;20374;-68
2023/12/16 08:12:55;;;;;;;;;;;;;;;6.32;95.91;103171.06;4190498;28;20047;-69
2023/12/16 08:14:58;;;;;;;;;;;;;;;6.40;95.74;103184.03;4191623;28;20556;-67
2023/12/16 08:17:00;;;;;;;;;;;;;;;6.39;96.13;103184.97;4191747;28;20050;-67
2023/12/16 08:19:02;;;;;;;;;;;;;;;6.39;96.12;103191.19;4191702;28;20022;-69
2023/12/16 08:21:03;;;;;;;;;;;;;;;6.40;96.13;103194.75;4191639;28;20023;-69
2023/12/16 08:23:07;;;;;;;;;;;;;;;6.40;95.99;103192.94;4191092;28;20016;-69
2023/12/16 08:25:09;;;;;;;;;;;;;;;6.40;95.54;103198.31;4190678;28;20019;-70
2023/12/16 08:27:11;;;;;;;;;;;;;;;6.41;95.89;103197.38;4189092;28;20019;-72
2023/12/16 08:29:13;;;;;;;;;;;;;;;6.42;95.84;103200.91;4192129;28;20023;-70
2023/12/16 08:31:17;;;;;;;;;;;;;;;6.42;95.57;103188.34;4190058;28;20115;-69
2023/12/16 08:33:21;;;;;;;;;;;;;;;6.42;95.52;103196.38;4191471;28;20969;-70
2023/12/16 08:35:23;;;;;;;;;;;;;;;6.42;95.39;103188.34;4190576;28;20418;-70
2023/12/16 08:37:26;;;;;;;;;;;;;;;6.43;95.41;103189.22;4191613;28;20015;-71
2023/12/16 08:39:28;;;;;;;;;;;;;;;6.43;95.60;103194.59;4189728;28;20379;-72
2023/12/16 08:41:30;;;;;;;;;;;;;;;6.45;95.56;103192.66;4191164;28;20019;-72
2023/12/16 08:43:32;;;;;;;;;;;;;;;6.43;95.35;103198.13;4189378;28;20011;-70
2023/12/16 08:45:33;;;;;;;;;;;;;;;6.44;95.18;103197.19;4193740;28;20020;-72
2023/12/16 08:47:36;;;;;;;;;;;;;;;6.45;94.98;103182.78;4193278;28;20346;-69
2023/12/16 08:49:38;;;;;;;;;;;;;;;6.45;95.29;103184.63;4193276;28;20390;-71
2023/12/16 08:51:41;;;;;;;;;;;;;;;6.45;94.94;103184.63;4193549;28;20040;-69
2023/12/16 08:53:42;;;;;;;;;;;;;;;6.45;95.22;103184.63;4194837;28;20023;-70
2023/12/16 08:55:44;;;;;;;;;;;;;;;6.45;94.81;103174.72;4191432;28;20608;-70
2023/12/16 08:57:46;;;;;;;;;;;;;;;6.45;94.98;103185.47;4189297;28;20014;-70
2023/12/16 08:59:48;;;;;;;;;;;;;;;6.45;95.01;103188.16;4190971;28;20035;-73
2023/12/16 09:01:50;;;;;;;;;;;;;;;6.47;94.76;103190.75;4192586;28;20036;-70
2023/12/16 09:03:54;;;;;;;;;;;;;;;6.47;94.83;103186.28;4192559;28;19957;-72
2023/12/16 09:05:55;;;;;;;;;;;;;;;6.47;95.00;103190.75;4192973;28;20019;-70
2023/12/16 09:07:57;;;;;;;;;;;;;;;6.46;94.84;103189.91;4191466;28;20004;-71
2023/12/16 09:09:59;;;;;;;;;;;;;;;6.47;94.71;103180.91;4191960;28;20018;-70
2023/12/16 09:12:01;;;;;;;;;;;;;;;6.47;94.67;103175.53;4190902;28;20032;-71
2023/12/16 09:14:04;;;;;;;;;;;;;;;6.47;94.60;103164.78;4190253;28;20028;-68
2023/12/16 09:16:06;;;;;;;;;;;;;;;6.48;94.72;103171.88;4187477;28;20033;-68
2023/12/16 09:18:08;;;;;;;;;;;;;;;6.48;94.74;103174.56;4189020;28;20019;-70
2023/12/16 09:20:11;;;;;;;;;;;;;;;6.49;94.34;103165.56;4189445;28;20015;-69
2023/12/16 09:22:13;;;;;;;;;;;;;;;6.49;94.60;103164.69;4189724;28;20039;-68
2023/12/16 09:24:15;;;;;;;;;;;;;;;6.49;94.61;103170.94;4190213;28;20454;-69
2023/12/16 09:26:17;;;;;;;;;;;;;;;6.49;94.49;103173.59;4192181;28;20018;-69
2023/12/16 09:28:19;;;;;;;;;;;;;;;6.51;94.19;103169.97;4190996;28;20035;-70
2023/12/16 09:30:20;;;;;;;;;;;;;;;6.50;94.31;103152.97;4192226;28;20047;-69
2023/12/16 09:32:22;;;;;;;;;;;;;;;6.52;94.06;103163.63;4193371;28;20023;-71
2023/12/16 09:34:24;;;;;;;;;;;;;;;6.52;94.35;103163.63;4191468;28;20087;-70
2023/12/16 09:36:27;;;;;;;;;;;;;;;6.52;94.03;103160.94;4192573;28;20068;-70
2023/12/16 09:38:29;;;;;;;;;;;;;;;6.53;94.21;103165.38;4192439;28;20067;-70
2023/12/16 09:40:32;;;;;;;;;;;;;;;6.53;94.02;103162.69;4193481;28;20111;-70
2023/12/16 09:42:33;;;;;;;;;;;;;;;6.53;93.99;103162.69;4192364;28;20490;-70
2023/12/16 09:44:36;;;;;;;;;;;;;;;6.54;93.88;103153.69;4190731;28;19928;-71
2023/12/16 09:46:38;;;;;;;;;;;;;;;6.54;94.28;103162.59;4196027;28;20019;-70
2023/12/16 09:48:42;;;;;;;;;;;;;;;6.56;94.20;103170.56;4188531;28;20048;-72
2023/12/16 09:50:44;;;;;;;;;;;;;;;6.56;94.27;103170.56;4192492;28;20027;-69
2023/12/16 09:52:48;;;;;;;;;;;;;;;6.56;93.84;103179.47;4193479;28;20039;-70
2023/12/16 09:54:50;;;;;;;;;;;;;;;6.57;94.13;103175.00;4193047;28;20047;-70
2023/12/16 09:56:53;;;;;;;;;;;;;;;6.59;93.66;103181.13;4193101;28;20638;-71
2023/12/16 09:58:57;;;;;;;;;;;;;;;6.58;93.54;103187.44;4192905;28;20023;-69
2023/12/16 10:00:59;;;;;;;;;;;;;;;6.61;93.47;103187.25;4192630;28;20019;-71
2023/12/16 10:03:00;;;;;;;;;;;;;;;6.61;93.37;103193.47;4190947;28;20361;-72
2023/12/16 10:05:03;;;;;;;;;;;;;;;6.61;93.34;103181.88;4192762;28;19981;-71
2023/12/16 10:07:07;;;;;;;;;;;;;;;6.62;93.42;103187.16;4191394;28;20350;-71
2023/12/16 10:09:10;;;;;;;;;;;;;;;6.62;93.52;103181.78;4191888;28;20007;-70
2023/12/16 10:11:12;;;;;;;;;;;;;;;6.63;93.50;103164.75;4190677;28;20028;-70
2023/12/16 10:13:14;;;;;;;;;;;;;;;6.64;93.46;103165.59;4191955;28;20015;-71
2023/12/16 10:15:23;;;;;;;;;;;;;;;6.66;93.08;103152.94;4193944;28;20019;-70
2023/12/16 10:17:25;;;;;;;;;;;;;;;6.65;93.34;103161.97;4193222;28;20035;-71
2023/12/16 10:19:27;;;;;;;;;;;;;;;6.66;92.92;103158.31;4192051;28;20156;-70
2023/12/16 10:21:32;;;;;;;;;;;;;;;6.67;92.89;103138.56;4193129;28;19954;-70
2023/12/16 10:23:34;;;;;;;;;;;;;;;6.66;92.84;103137.69;4193457;28;20561;-69
2023/12/16 10:25:36;;;;;;;;;;;;;;;6.66;93.09;103132.34;4192850;28;19986;-69
2023/12/16 10:27:38;;;;;;;;;;;;;;;6.68;93.14;103130.41;4193580;28;20008;-72
2023/12/16 10:29:41;;;;;;;;;;;;;;;6.69;92.86;103120.50;4192174;28;20018;-72
2023/12/16 10:31:43;;;;;;;;;;;;;;;6.69;92.88;103112.47;4192878;28;20024;-71
2023/12/16 10:33:45;;;;;;;;;;;;;;;6.72;92.77;103119.47;4189553;28;20019;-71
2023/12/16 10:35:47;;;;;;;;;;;;;;;6.71;92.55;103121.31;4193109;28;20027;-70
2023/12/16 10:37:50;;;;;;;;;;;;;;;6.73;92.34;103111.31;4191995;28;20027;-71